Time;durP1;ratioP1;P1;durP2;ratioP2;P2;SDS_P1;SDS_P2;PMS_P1;PMS_P2;Temp;Humidity;BMP_temperature;BMP_pressure;BME280_temperature;BME280_humidity;BME280_pressure;Samples;Min_cycle;Max_cycle;Signal;HPM_P1;HPM_P2
2021/04/02 00:00:49;;;;;;;13.05;3.13;;;;;;;;;;5114340;28;20073;-65
2021/04/02 00:03:15;;;;;;;9.80;2.80;;;;;;;;;;5110318;28;20032;-64
2021/04/02 00:05:40;;;;;;;7.80;2.92;;;;;;;;;;5096217;28;20020;-64
2021/04/02 00:08:05;;;;;;;9.10;2.85;;;;;;;;;;5113791;28;20026;-64
2021/04/02 00:10:34;;;;;;;9.98;3.53;;;;;;;;;;5114277;28;20032;-64
2021/04/02 00:12:59;;;;;;;10.27;3.30;;;;;;;;;;5114270;28;20019;-64
2021/04/02 00:15:24;;;;;;;9.77;2.55;;;;;;;;;;5114293;28;20084;-64
2021/04/02 00:17:50;;;;;;;16.35;3.42;;;;;;;;;;5114082;28;20034;-64
2021/04/02 00:20:16;;;;;;;5.72;2.17;;;;;;;;;;5109976;28;20019;-64
2021/04/02 00:22:42;;;;;;;9.57;3.97;;;;;;;;;;5093705;28;20047;-64
2021/04/02 00:25:08;;;;;;;7.35;2.17;;;;;;;;;;5093818;28;20036;-64
2021/04/02 00:27:33;;;;;;;8.93;2.33;;;;;;;;;;5093436;28;20384;-64
2021/04/02 00:29:59;;;;;;;13.25;2.83;;;;;;;;;;5093561;28;20012;-65
2021/04/02 00:32:26;;;;;;;8.95;2.95;;;;;;;;;;5093708;28;20028;-64
2021/04/02 00:34:51;;;;;;;9.20;2.45;;;;;;;;;;5093358;28;20528;-64
2021/04/02 00:37:16;;;;;;;4.85;2.03;;;;;;;;;;5093392;28;20102;-64
2021/04/02 00:39:42;;;;;;;7.20;2.00;;;;;;;;;;5093191;28;20133;-64
2021/04/02 00:42:07;;;;;;;12.57;2.28;;;;;;;;;;5093299;28;20028;-64
2021/04/02 00:44:32;;;;;;;8.82;1.83;;;;;;;;;;5093571;28;20028;-64
2021/04/02 00:46:57;;;;;;;8.15;2.08;;;;;;;;;;5093341;28;20040;-64
2021/04/02 00:49:23;;;;;;;4.35;1.98;;;;;;;;;;5093392;28;20120;-64
2021/04/02 00:51:48;;;;;;;7.43;2.30;;;;;;;;;;5093257;28;20073;-64
2021/04/02 00:54:13;;;;;;;10.48;1.85;;;;;;;;;;5093373;28;20123;-65
2021/04/02 00:56:39;;;;;;;11.18;2.45;;;;;;;;;;5093239;28;20375;-65
2021/04/02 00:59:05;;;;;;;9.30;3.33;;;;;;;;;;5092781;28;20030;-64
2021/04/02 01:01:30;;;;;;;5.78;1.98;;;;;;;;;;5093010;28;20117;-66
2021/04/02 01:03:56;;;;;;;7.72;1.83;;;;;;;;;;5093372;28;20384;-66
2021/04/02 01:06:26;;;;;;;22.38;2.42;;;;;;;;;;5093115;28;20057;-66
2021/04/02 01:08:52;;;;;;;7.00;1.70;;;;;;;;;;5093084;28;20033;-66
2021/04/02 01:11:19;;;;;;;5.97;1.83;;;;;;;;;;5093192;28;20376;-66
2021/04/02 01:13:50;;;;;;;12.82;2.72;;;;;;;;;;5093067;28;20019;-67
2021/04/02 01:16:17;;;;;;;9.95;1.70;;;;;;;;;;5093113;28;20035;-66
2021/04/02 01:19:01;;;;;;;15.45;2.80;;;;;;;;;;5093018;28;20082;-66
2021/04/02 01:21:28;;;;;;;6.22;1.65;;;;;;;;;;5092912;28;20025;-66
2021/04/02 01:23:59;;;;;;;11.13;2.00;;;;;;;;;;5092923;28;20077;-66
2021/04/02 01:26:34;;;;;;;12.25;2.85;;;;;;;;;;5092964;28;20095;-66
2021/04/02 01:29:05;;;;;;;8.77;2.10;;;;;;;;;;5105123;28;20715;-67
2021/04/02 01:31:31;;;;;;;6.32;2.00;;;;;;;;;;5113128;28;20031;-67
2021/04/02 01:33:57;;;;;;;5.15;1.70;;;;;;;;;;5113261;28;20034;-66
2021/04/02 01:36:23;;;;;;;8.18;2.13;;;;;;;;;;5113144;28;20518;-66
2021/04/02 01:38:49;;;;;;;4.72;3.10;;;;;;;;;;5113168;28;20047;-67
2021/04/02 01:41:15;;;;;;;10.23;2.22;;;;;;;;;;5112780;28;20049;-67
2021/04/02 01:43:48;;;;;;;12.82;2.70;;;;;;;;;;5113619;28;20438;-64
2021/04/02 01:46:15;;;;;;;6.90;2.25;;;;;;;;;;5113184;28;20027;-67
2021/04/02 01:48:42;;;;;;;8.63;2.30;;;;;;;;;;5112960;28;20537;-67
2021/04/02 01:51:07;;;;;;;9.02;2.30;;;;;;;;;;5112886;28;20085;-66
2021/04/02 01:53:38;;;;;;;12.63;2.63;;;;;;;;;;5113120;28;20023;-66
2021/04/02 01:56:04;;;;;;;9.70;1.88;;;;;;;;;;5112928;28;20032;-66
2021/04/02 01:58:30;;;;;;;9.88;2.25;;;;;;;;;;5112991;28;20118;-66
2021/04/02 02:00:57;;;;;;;8.93;1.85;;;;;;;;;;5112590;28;20031;-66
2021/04/02 02:03:23;;;;;;;6.32;2.08;;;;;;;;;;5112913;28;20028;-66
2021/04/02 02:05:51;;;;;;;8.88;2.25;;;;;;;;;;5112635;28;20082;-66
2021/04/02 02:08:18;;;;;;;14.50;2.40;;;;;;;;;;5112963;28;20072;-66
2021/04/02 02:10:44;;;;;;;6.15;1.70;;;;;;;;;;5114623;28;20039;-66
2021/04/02 02:13:11;;;;;;;9.13;1.52;;;;;;;;;;5116603;28;20031;-66
2021/04/02 02:15:38;;;;;;;9.23;1.77;;;;;;;;;;5116596;28;20027;-66
2021/04/02 02:18:06;;;;;;;4.55;1.30;;;;;;;;;;5116835;28;20039;-67
2021/04/02 02:20:32;;;;;;;8.52;1.95;;;;;;;;;;5116142;28;20555;-66
2021/04/02 02:22:57;;;;;;;4.55;1.83;;;;;;;;;;5116356;28;20023;-66
2021/04/02 02:25:24;;;;;;;9.40;2.20;;;;;;;;;;5116475;28;20038;-66
2021/04/02 02:27:50;;;;;;;8.45;1.77;;;;;;;;;;5116218;28;20032;-66
2021/04/02 02:30:18;;;;;;;6.10;1.88;;;;;;;;;;5116338;28;20051;-64
2021/04/02 02:32:43;;;;;;;8.70;2.22;;;;;;;;;;5116276;28;20020;-64
2021/04/02 02:35:09;;;;;;;8.20;2.53;;;;;;;;;;5115954;28;20463;-64
2021/04/02 02:37:35;;;;;;;10.98;1.80;;;;;;;;;;5116171;28;20028;-64
2021/04/02 02:40:04;;;;;;;8.60;1.58;;;;;;;;;;5116181;28;20047;-64
2021/04/02 02:42:29;;;;;;;7.50;1.45;;;;;;;;;;5115846;28;20045;-64
2021/04/02 02:44:54;;;;;;;9.30;2.47;;;;;;;;;;5115831;28;20099;-65
2021/04/02 02:47:20;;;;;;;8.05;1.70;;;;;;;;;;5116243;28;20023;-64
2021/04/02 02:49:47;;;;;;;6.20;1.30;;;;;;;;;;5116002;28;20040;-64
2021/04/02 02:52:13;;;;;;;7.03;1.70;;;;;;;;;;5115850;28;20016;-64
2021/04/02 02:54:39;;;;;;;8.35;1.95;;;;;;;;;;5115922;28;20027;-64
2021/04/02 02:57:05;;;;;;;10.73;1.92;;;;;;;;;;5115722;28;20035;-64
2021/04/02 02:59:31;;;;;;;4.63;1.35;;;;;;;;;;5115863;28;20038;-66
2021/04/02 03:01:58;;;;;;;7.43;1.70;;;;;;;;;;5115683;28;20035;-66
2021/04/02 03:04:24;;;;;;;9.90;1.73;;;;;;;;;;5115794;28;20027;-66
2021/04/02 03:06:51;;;;;;;7.43;2.13;;;;;;;;;;5115291;28;20491;-66
2021/04/02 03:09:17;;;;;;;13.10;2.25;;;;;;;;;;5115330;28;20027;-67
2021/04/02 03:11:43;;;;;;;7.72;2.35;;;;;;;;;;5115091;28;20427;-66
2021/04/02 03:14:09;;;;;;;6.28;2.13;;;;;;;;;;5115156;28;20027;-66
2021/04/02 03:16:40;;;;;;;22.50;2.30;;;;;;;;;;5115421;28;20038;-66
2021/04/02 03:19:06;;;;;;;8.25;1.52;;;;;;;;;;5115286;28;20371;-66
2021/04/02 03:21:32;;;;;;;9.82;2.80;;;;;;;;;;5114709;28;20032;-66
2021/04/02 03:23:58;;;;;;;6.72;1.98;;;;;;;;;;5114579;28;20042;-66
2021/04/02 03:26:23;;;;;;;10.68;2.13;;;;;;;;;;5115245;28;20591;-67
2021/04/02 03:28:50;;;;;;;9.35;2.83;;;;;;;;;;5115210;28;20044;-67
2021/04/02 03:31:16;;;;;;;9.70;2.45;;;;;;;;;;5115199;28;20034;-66
2021/04/02 03:33:46;;;;;;;7.10;2.05;;;;;;;;;;5115150;28;20388;-66
2021/04/02 03:36:12;;;;;;;11.23;3.15;;;;;;;;;;5114981;28;20145;-66
2021/04/02 03:38:38;;;;;;;10.15;2.30;;;;;;;;;;5096426;28;20497;-66
2021/04/02 03:41:06;;;;;;;9.48;2.20;;;;;;;;;;5114943;28;20046;-66
2021/04/02 03:43:32;;;;;;;3.95;1.80;;;;;;;;;;5114647;28;20106;-66
2021/04/02 03:45:59;;;;;;;14.07;2.13;;;;;;;;;;5114570;28;20063;-66
2021/04/02 03:48:25;;;;;;;5.70;2.30;;;;;;;;;;5114891;28;20031;-66
2021/04/02 03:50:52;;;;;;;12.98;2.25;;;;;;;;;;5114663;28;20083;-66
2021/04/02 03:53:26;;;;;;;9.95;2.10;;;;;;;;;;5114655;28;20068;-66
2021/04/02 03:55:53;;;;;;;5.93;2.00;;;;;;;;;;5114711;28;20039;-66
2021/04/02 03:58:19;;;;;;;9.48;2.72;;;;;;;;;;5114723;28;20019;-66
2021/04/02 04:00:47;;;;;;;7.30;2.33;;;;;;;;;;5114456;28;20034;-66
2021/04/02 04:03:14;;;;;;;12.20;2.00;;;;;;;;;;5114378;28;20065;-66
2021/04/02 04:05:40;;;;;;;14.70;2.05;;;;;;;;;;5114467;28;20103;-66
2021/04/02 04:08:08;;;;;;;5.35;2.15;;;;;;;;;;5114454;28;20523;-66
2021/04/02 04:10:34;;;;;;;10.05;1.92;;;;;;;;;;5114333;28;20098;-66
2021/04/02 04:13:00;;;;;;;14.95;2.53;;;;;;;;;;5114315;28;20046;-67
2021/04/02 04:15:26;;;;;;;6.15;1.90;;;;;;;;;;5114361;28;20476;-66
2021/04/02 04:17:51;;;;;;;6.85;2.05;;;;;;;;;;5114222;28;20146;-66
2021/04/02 04:20:17;;;;;;;7.10;2.17;;;;;;;;;;5113983;28;20027;-66
2021/04/02 04:22:43;;;;;;;13.95;2.25;;;;;;;;;;5113913;28;20531;-64
2021/04/02 04:25:09;;;;;;;7.45;1.92;;;;;;;;;;5114066;28;20152;-65
2021/04/02 04:27:38;;;;;;;8.30;1.60;;;;;;;;;;5113788;28;20499;-65
2021/04/02 04:30:04;;;;;;;7.20;1.80;;;;;;;;;;5113764;28;20111;-64
2021/04/02 04:32:30;;;;;;;6.88;1.90;;;;;;;;;;5113740;28;20468;-64
2021/04/02 04:34:56;;;;;;;7.35;1.98;;;;;;;;;;5112788;28;20031;-64
2021/04/02 04:37:22;;;;;;;12.35;2.28;;;;;;;;;;5114014;28;20092;-64
2021/04/02 04:39:48;;;;;;;11.55;2.20;;;;;;;;;;5113451;28;20047;-65
2021/04/02 04:42:17;;;;;;;10.48;1.98;;;;;;;;;;5113591;28;20632;-64
2021/04/02 04:44:44;;;;;;;7.13;1.70;;;;;;;;;;5113865;28;20054;-64
2021/04/02 04:47:10;;;;;;;9.13;1.92;;;;;;;;;;5113648;28;20098;-65
2021/04/02 04:49:35;;;;;;;10.10;1.77;;;;;;;;;;5113348;28;20058;-64
2021/04/02 04:52:01;;;;;;;6.30;1.92;;;;;;;;;;5113687;28;20028;-64
2021/04/02 04:54:28;;;;;;;11.80;1.85;;;;;;;;;;5113427;28;20020;-64
2021/04/02 04:56:55;;;;;;;6.20;2.22;;;;;;;;;;5095151;28;20399;-64
2021/04/02 04:59:21;;;;;;;9.15;1.90;;;;;;;;;;5113845;28;20039;-64
2021/04/02 05:01:49;;;;;;;10.10;3.00;;;;;;;;;;5113264;28;20030;-64
2021/04/02 05:04:14;;;;;;;5.22;1.42;;;;;;;;;;5113548;28;20679;-64
2021/04/02 05:06:41;;;;;;;10.55;2.03;;;;;;;;;;5113123;28;20110;-65
2021/04/02 05:09:06;;;;;;;3.80;1.50;;;;;;;;;;5113551;28;20015;-65
2021/04/02 05:11:33;;;;;;;8.88;1.52;;;;;;;;;;5113524;28;20036;-64
2021/04/02 05:14:00;;;;;;;7.68;1.75;;;;;;;;;;5113408;28;20034;-64
2021/04/02 05:16:27;;;;;;;7.07;2.25;;;;;;;;;;5113234;28;20019;-64
2021/04/02 05:18:53;;;;;;;7.03;1.90;;;;;;;;;;5113410;28;20024;-64
2021/04/02 05:21:18;;;;;;;4.95;1.95;;;;;;;;;;5113295;28;20078;-64
2021/04/02 05:23:44;;;;;;;8.77;1.90;;;;;;;;;;5113415;28;20039;-64
2021/04/02 05:26:14;;;;;;;5.95;2.00;;;;;;;;;;5113139;28;20034;-64
2021/04/02 05:28:39;;;;;;;5.63;2.13;;;;;;;;;;5112939;28;20409;-64
2021/04/02 05:31:05;;;;;;;6.35;2.03;;;;;;;;;;5113237;28;20022;-64
2021/04/02 05:33:30;;;;;;;11.13;2.25;;;;;;;;;;5113122;28;20051;-64
2021/04/02 05:35:56;;;;;;;4.63;1.73;;;;;;;;;;5113296;28;20040;-64
2021/04/02 05:38:21;;;;;;;7.22;1.73;;;;;;;;;;5112976;28;20039;-64
2021/04/02 05:40:46;;;;;;;7.45;1.60;;;;;;;;;;5113209;28;20071;-64
2021/04/02 05:43:15;;;;;;;9.38;2.20;;;;;;;;;;5113142;28;20494;-64
2021/04/02 05:45:40;;;;;;;6.80;1.70;;;;;;;;;;5114872;28;20064;-64
2021/04/02 05:48:07;;;;;;;7.30;1.60;;;;;;;;;;5117162;28;20126;-64
2021/04/02 05:50:33;;;;;;;7.85;1.90;;;;;;;;;;5116787;28;20030;-64
2021/04/02 05:53:04;;;;;;;8.85;2.38;;;;;;;;;;5116905;28;20121;-64
2021/04/02 05:55:32;;;;;;;9.57;2.13;;;;;;;;;;5117228;28;20035;-64
2021/04/02 05:57:57;;;;;;;10.00;2.80;;;;;;;;;;5116980;28;20031;-64
2021/04/02 06:00:23;;;;;;;6.32;1.73;;;;;;;;;;5116803;28;20467;-64
2021/04/02 06:02:49;;;;;;;12.15;1.95;;;;;;;;;;5116791;28;20063;-64
2021/04/02 06:05:15;;;;;;;10.20;2.00;;;;;;;;;;5116617;28;20144;-65
2021/04/02 06:07:42;;;;;;;8.38;2.00;;;;;;;;;;5116684;28;20016;-64
2021/04/02 06:10:07;;;;;;;11.32;2.00;;;;;;;;;;5115992;28;20387;-64
2021/04/02 06:12:36;;;;;;;11.50;2.17;;;;;;;;;;5116209;28;20032;-64
2021/04/02 06:15:03;;;;;;;5.85;2.58;;;;;;;;;;5116617;28;20139;-64
2021/04/02 06:17:48;;;;;;;10.75;2.25;;;;;;;;;;5116353;28;20380;-64
2021/04/02 06:20:13;;;;;;;11.90;2.33;;;;;;;;;;5116445;28;20051;-64
2021/04/02 06:22:39;;;;;;;9.02;3.53;;;;;;;;;;5116478;28;20506;-64
2021/04/02 06:25:04;;;;;;;11.70;2.00;;;;;;;;;;5116341;28;20031;-64
2021/04/02 06:27:30;;;;;;;4.55;1.48;;;;;;;;;;5116278;28;20471;-64
2021/04/02 06:30:03;;;;;;;4.05;1.75;;;;;;;;;;5116214;28;20027;-64
2021/04/02 06:32:32;;;;;;;10.10;2.08;;;;;;;;;;5116492;28;20035;-65
2021/04/02 06:35:01;;;;;;;6.38;1.42;;;;;;;;;;5116268;28;20076;-64
2021/04/02 06:37:31;;;;;;;6.20;1.75;;;;;;;;;;5116212;28;20059;-64
2021/04/02 06:39:57;;;;;;;5.32;1.70;;;;;;;;;;5115599;28;20040;-64
2021/04/02 06:42:32;;;;;;;5.53;1.88;;;;;;;;;;5116149;28;20046;-64
2021/04/02 06:45:01;;;;;;;3.65;1.55;;;;;;;;;;5115792;28;20028;-64
2021/04/02 06:47:35;;;;;;;5.07;1.88;;;;;;;;;;5116028;28;20040;-64
2021/04/02 06:50:04;;;;;;;10.98;2.30;;;;;;;;;;5113192;28;20030;-64
2021/04/02 06:52:30;;;;;;;35.78;4.65;;;;;;;;;;5078276;28;20028;-65
2021/04/02 06:54:56;;;;;;;7.45;1.55;;;;;;;;;;5075236;28;20036;-64
2021/04/02 06:57:22;;;;;;;10.32;1.50;;;;;;;;;;5074023;28;20138;-64
2021/04/02 06:59:49;;;;;;;12.73;2.28;;;;;;;;;;5075314;28;20377;-64
2021/04/02 07:02:15;;;;;;;5.72;2.10;;;;;;;;;;5074875;28;20040;-64
2021/04/02 07:04:41;;;;;;;5.93;1.65;;;;;;;;;;5075114;28;20017;-64
2021/04/02 07:07:08;;;;;;;6.68;1.65;;;;;;;;;;5074824;28;20033;-64
2021/04/02 07:09:35;;;;;;;3.97;1.33;;;;;;;;;;5077273;28;20029;-64
2021/04/02 07:12:01;;;;;;;5.28;1.45;;;;;;;;;;5095077;28;20081;-67
2021/04/02 07:14:27;;;;;;;6.95;2.22;;;;;;;;;;5095086;28;20051;-67
2021/04/02 07:16:53;;;;;;;5.63;1.48;;;;;;;;;;5096373;28;20071;-65
2021/04/02 07:19:19;;;;;;;4.40;1.25;;;;;;;;;;5094174;28;20012;-64
2021/04/02 07:21:45;;;;;;;6.55;1.33;;;;;;;;;;5093921;28;20040;-64
2021/04/02 07:24:11;;;;;;;4.35;1.23;;;;;;;;;;5094340;28;20464;-64
2021/04/02 07:26:36;;;;;;;10.88;1.73;;;;;;;;;;5090599;28;20483;-66
2021/04/02 07:29:02;;;;;;;12.55;1.60;;;;;;;;;;5092417;28;20036;-67
2021/04/02 07:31:28;;;;;;;10.88;2.17;;;;;;;;;;5092513;28;20173;-67
2021/04/02 07:33:54;;;;;;;7.85;1.70;;;;;;;;;;5092341;28;20019;-66
2021/04/02 07:36:21;;;;;;;6.35;1.52;;;;;;;;;;5091187;28;20042;-66
2021/04/02 07:38:47;;;;;;;8.07;1.70;;;;;;;;;;5091297;28;20054;-66
2021/04/02 07:41:13;;;;;;;9.20;1.80;;;;;;;;;;5091432;28;20043;-66
2021/04/02 07:43:49;;;;;;;9.10;1.65;;;;;;;;;;5093635;28;20459;-67
2021/04/02 07:46:15;;;;;;;8.25;1.60;;;;;;;;;;5097431;28;20484;-66
2021/04/02 07:48:41;;;;;;;8.07;1.58;;;;;;;;;;5099746;28;20042;-66
2021/04/02 07:51:06;;;;;;;6.72;1.23;;;;;;;;;;5102401;28;20464;-66
2021/04/02 07:53:32;;;;;;;7.28;1.75;;;;;;;;;;5108649;28;20024;-66
2021/04/02 07:56:03;;;;;;;8.05;1.80;;;;;;;;;;5111793;28;20077;-66
2021/04/02 07:58:29;;;;;;;13.60;2.05;;;;;;;;;;5110847;28;20745;-67
2021/04/02 08:00:56;;;;;;;8.60;1.80;;;;;;;;;;5111576;28;20035;-66
2021/04/02 08:03:23;;;;;;;7.40;1.73;;;;;;;;;;5111148;28;20106;-67
2021/04/02 08:05:54;;;;;;;6.47;1.70;;;;;;;;;;5109383;28;20028;-66
2021/04/02 08:08:20;;;;;;;6.25;1.90;;;;;;;;;;5108869;28;20026;-66
2021/04/02 08:11:03;;;;;;;7.68;1.80;;;;;;;;;;5110555;28;20138;-66
2021/04/02 08:13:29;;;;;;;9.63;1.70;;;;;;;;;;5111677;28;20111;-67
2021/04/02 08:15:56;;;;;;;10.90;2.03;;;;;;;;;;5111114;28;20475;-67
2021/04/02 08:18:25;;;;;;;7.13;1.23;;;;;;;;;;5110584;28;20034;-67
2021/04/02 08:20:54;;;;;;;10.43;2.03;;;;;;;;;;5111566;28;20012;-66
2021/04/02 08:23:20;;;;;;;4.10;1.25;;;;;;;;;;5111516;28;20058;-66
2021/04/02 08:25:45;;;;;;;10.40;2.00;;;;;;;;;;5111721;28;20068;-66
2021/04/02 08:28:11;;;;;;;4.88;1.48;;;;;;;;;;5111823;28;20448;-67
2021/04/02 08:30:38;;;;;;;6.68;1.70;;;;;;;;;;5111553;28;20449;-67
2021/04/02 08:33:06;;;;;;;7.53;1.92;;;;;;;;;;5111322;28;20424;-67
2021/04/02 08:35:31;;;;;;;12.38;1.67;;;;;;;;;;5093433;28;20439;-66
2021/04/02 08:37:57;;;;;;;6.68;1.63;;;;;;;;;;5111329;28;20118;-67
2021/04/02 08:40:23;;;;;;;16.92;2.00;;;;;;;;;;5112184;28;20039;-67
2021/04/02 08:42:49;;;;;;;14.63;2.25;;;;;;;;;;5111349;28;20038;-67
2021/04/02 08:45:15;;;;;;;12.25;2.38;;;;;;;;;;5111765;28;20059;-67
2021/04/02 08:47:40;;;;;;;8.63;1.77;;;;;;;;;;5111492;28;20484;-67
2021/04/02 08:50:07;;;;;;;8.13;1.80;;;;;;;;;;5111475;28;20016;-66
2021/04/02 08:52:32;;;;;;;3.83;1.30;;;;;;;;;;5111807;28;20038;-67
2021/04/02 08:54:58;;;;;;;5.47;1.50;;;;;;;;;;5111502;28;20048;-67
2021/04/02 08:57:25;;;;;;;4.38;1.35;;;;;;;;;;5111305;28;20076;-67
2021/04/02 08:59:52;;;;;;;5.90;1.40;;;;;;;;;;5111312;28;20032;-67
2021/04/02 09:02:17;;;;;;;4.50;1.60;;;;;;;;;;5111211;28;20051;-67
2021/04/02 09:04:43;;;;;;;7.55;2.30;;;;;;;;;;5111808;28;20019;-67
2021/04/02 09:07:09;;;;;;;7.30;2.17;;;;;;;;;;5111498;28;20039;-67
2021/04/02 09:09:34;;;;;;;9.98;1.88;;;;;;;;;;5113284;28;20032;-67
2021/04/02 09:12:08;;;;;;;8.45;1.92;;;;;;;;;;5112979;28;20027;-67
2021/04/02 09:14:34;;;;;;;10.52;1.75;;;;;;;;;;5113307;28;20106;-67
2021/04/02 09:16:59;;;;;;;7.07;1.92;;;;;;;;;;5113157;28;20124;-67
2021/04/02 09:19:25;;;;;;;7.85;1.92;;;;;;;;;;5094975;28;20019;-65
2021/04/02 09:21:52;;;;;;;9.27;1.80;;;;;;;;;;5107315;28;20040;-66
2021/04/02 09:24:17;;;;;;;5.57;1.75;;;;;;;;;;5101519;28;20032;-66
2021/04/02 09:26:42;;;;;;;8.82;1.95;;;;;;;;;;5096933;28;20070;-66
2021/04/02 09:29:09;;;;;;;11.35;2.33;;;;;;;;;;5097327;28;20059;-66
2021/04/02 09:31:35;;;;;;;7.22;1.95;;;;;;;;;;5097104;28;20079;-66
2021/04/02 09:34:02;;;;;;;6.55;1.58;;;;;;;;;;5097091;28;20020;-66
2021/04/02 09:36:28;;;;;;;8.32;1.48;;;;;;;;;;5096744;28;20475;-66
2021/04/02 09:39:06;;;;;;;11.57;2.00;;;;;;;;;;5096771;28;20383;-66
2021/04/02 09:41:31;;;;;;;11.57;1.95;;;;;;;;;;5096595;28;20495;-66
2021/04/02 09:44:04;;;;;;;6.35;1.63;;;;;;;;;;5096520;28;20064;-66
2021/04/02 09:46:30;;;;;;;7.47;1.63;;;;;;;;;;5096716;28;20020;-66
2021/04/02 09:49:15;;;;;;;5.00;1.92;;;;;;;;;;5096548;28;20032;-66
2021/04/02 09:51:45;;;;;;;6.70;1.67;;;;;;;;;;5096418;28;20472;-66
2021/04/02 09:54:11;;;;;;;7.47;1.60;;;;;;;;;;5096346;28;20432;-66
2021/04/02 09:56:37;;;;;;;6.13;2.00;;;;;;;;;;5078328;28;20464;-66
2021/04/02 09:59:02;;;;;;;7.55;1.92;;;;;;;;;;5096434;28;20031;-66
2021/04/02 10:01:28;;;;;;;5.57;1.65;;;;;;;;;;5096659;28;20130;-66
2021/04/02 10:03:53;;;;;;;6.32;1.80;;;;;;;;;;5096544;28;20047;-66
2021/04/02 10:06:18;;;;;;;8.90;1.60;;;;;;;;;;5096587;28;20024;-66
2021/04/02 10:08:44;;;;;;;6.53;1.50;;;;;;;;;;5096247;28;20036;-66
2021/04/02 10:11:09;;;;;;;8.40;1.58;;;;;;;;;;5096354;28;20169;-66
2021/04/02 10:13:35;;;;;;;7.50;1.65;;;;;;;;;;5096341;28;20016;-66
2021/04/02 10:16:00;;;;;;;9.52;2.03;;;;;;;;;;5096173;28;20024;-66
2021/04/02 10:18:28;;;;;;;7.03;1.45;;;;;;;;;;5096337;28;20036;-65
2021/04/02 10:20:53;;;;;;;7.97;1.70;;;;;;;;;;5095950;28;20032;-66
2021/04/02 10:23:18;;;;;;;6.00;1.55;;;;;;;;;;5095997;28;20034;-66
2021/04/02 10:25:44;;;;;;;6.38;2.00;;;;;;;;;;5096520;28;20073;-66
2021/04/02 10:28:09;;;;;;;4.22;1.42;;;;;;;;;;5095615;28;20052;-66
2021/04/02 10:30:34;;;;;;;8.55;1.80;;;;;;;;;;5096172;28;20039;-66
2021/04/02 10:33:00;;;;;;;6.25;1.65;;;;;;;;;;5095790;28;20039;-65
2021/04/02 10:35:27;;;;;;;9.02;2.03;;;;;;;;;;5095641;28;20024;-66
2021/04/02 10:37:53;;;;;;;7.88;2.03;;;;;;;;;;5095717;28;20075;-66
2021/04/02 10:40:18;;;;;;;7.50;1.52;;;;;;;;;;5095797;28;20063;-66
2021/04/02 10:42:44;;;;;;;5.28;1.58;;;;;;;;;;5095668;28;20071;-65
2021/04/02 10:45:09;;;;;;;9.70;1.85;;;;;;;;;;5077666;28;20443;-66
2021/04/02 10:47:34;;;;;;;4.25;1.20;;;;;;;;;;5095507;28;20490;-65
2021/04/02 10:50:00;;;;;;;9.20;1.67;;;;;;;;;;5095581;28;20016;-66
2021/04/02 10:52:25;;;;;;;8.23;1.80;;;;;;;;;;5095470;28;20444;-65
2021/04/02 10:54:50;;;;;;;10.15;1.60;;;;;;;;;;5095707;28;20395;-65
2021/04/02 10:57:16;;;;;;;7.25;1.60;;;;;;;;;;5095410;28;20020;-65
2021/04/02 10:59:42;;;;;;;8.88;1.65;;;;;;;;;;5095512;28;20380;-65
2021/04/02 11:02:07;;;;;;;9.48;1.60;;;;;;;;;;5094990;28;20458;-65
2021/04/02 11:04:32;;;;;;;6.60;1.35;;;;;;;;;;5094940;28;20122;-65
2021/04/02 11:06:58;;;;;;;9.40;1.25;;;;;;;;;;5088403;28;20036;-65
2021/04/02 11:09:23;;;;;;;5.35;1.70;;;;;;;;;;5088535;28;20473;-64
2021/04/02 11:11:48;;;;;;;6.97;1.50;;;;;;;;;;5094670;28;20103;-64
2021/04/02 11:14:14;;;;;;;3.92;1.33;;;;;;;;;;5095030;28;20028;-65
2021/04/02 11:16:39;;;;;;;6.43;1.58;;;;;;;;;;5095041;28;20032;-65
2021/04/02 11:19:04;;;;;;;2.63;1.48;;;;;;;;;;5094393;28;20020;-67
2021/04/02 11:21:29;;;;;;;9.60;1.55;;;;;;;;;;5094984;28;20048;-67
2021/04/02 11:23:55;;;;;;;6.72;1.50;;;;;;;;;;5094659;28;20024;-67
2021/04/02 11:26:21;;;;;;;8.10;1.90;;;;;;;;;;5094700;28;20051;-67
2021/04/02 11:28:46;;;;;;;9.98;1.60;;;;;;;;;;5094485;28;20376;-67
2021/04/02 11:31:12;;;;;;;7.47;1.85;;;;;;;;;;5094698;28;20040;-65
2021/04/02 11:33:37;;;;;;;6.25;1.95;;;;;;;;;;5094437;28;20031;-65
2021/04/02 11:36:02;;;;;;;6.57;1.50;;;;;;;;;;5094676;28;20024;-65
2021/04/02 11:38:30;;;;;;;7.18;1.48;;;;;;;;;;5093978;28;20585;-65
2021/04/02 11:40:55;;;;;;;8.77;1.80;;;;;;;;;;5094101;28;20111;-65
2021/04/02 11:43:21;;;;;;;4.30;1.45;;;;;;;;;;5093906;28;20115;-65
2021/04/02 11:45:47;;;;;;;12.45;2.10;;;;;;;;;;5094112;28;20027;-65
2021/04/02 11:48:12;;;;;;;5.47;1.50;;;;;;;;;;5094177;28;20024;-65
2021/04/02 11:50:38;;;;;;;6.68;1.67;;;;;;;;;;5086769;28;20042;-67
2021/04/02 11:53:03;;;;;;;5.70;1.88;;;;;;;;;;5089686;28;20032;-67
2021/04/02 11:55:28;;;;;;;5.07;1.50;;;;;;;;;;5089587;28;20035;-67
2021/04/02 11:57:53;;;;;;;10.52;1.67;;;;;;;;;;5090636;28;20035;-67
2021/04/02 12:00:19;;;;;;;5.75;1.60;;;;;;;;;;5090051;28;20392;-67
2021/04/02 12:02:45;;;;;;;9.20;2.03;;;;;;;;;;5089994;28;20036;-67
2021/04/02 12:05:10;;;;;;;6.95;1.70;;;;;;;;;;5090684;28;20123;-67
2021/04/02 12:07:36;;;;;;;7.47;2.20;;;;;;;;;;5089876;28;20036;-67
2021/04/02 12:10:02;;;;;;;8.60;1.73;;;;;;;;;;5090370;28;20073;-67
2021/04/02 12:12:28;;;;;;;8.27;1.48;;;;;;;;;;5090017;28;20039;-67
2021/04/02 12:14:53;;;;;;;8.20;1.73;;;;;;;;;;5090359;28;20031;-67
2021/04/02 12:17:18;;;;;;;6.15;1.42;;;;;;;;;;5090121;28;20444;-67
2021/04/02 12:19:43;;;;;;;6.95;1.30;;;;;;;;;;5090418;28;20472;-67
2021/04/02 12:22:09;;;;;;;9.73;1.85;;;;;;;;;;5089315;28;20040;-65
2021/04/02 12:24:36;;;;;;;6.00;1.13;;;;;;;;;;5090444;28;20115;-65
2021/04/02 12:27:01;;;;;;;2.65;1.52;;;;;;;;;;5089501;28;20452;-65
2021/04/02 12:29:26;;;;;;;9.93;1.90;;;;;;;;;;5090186;28;20064;-67
2021/04/02 12:31:51;;;;;;;6.07;1.67;;;;;;;;;;5089812;28;20024;-67
2021/04/02 12:34:17;;;;;;;4.45;1.50;;;;;;;;;;5089640;28;20739;-67
2021/04/02 12:36:42;;;;;;;7.35;1.50;;;;;;;;;;5090054;28;20063;-67
2021/04/02 12:39:07;;;;;;;4.85;1.25;;;;;;;;;;5089856;28;20123;-67
2021/04/02 12:41:33;;;;;;;4.65;1.83;;;;;;;;;;5089971;28;20504;-65
2021/04/02 12:43:58;;;;;;;9.55;2.20;;;;;;;;;;5089240;28;20066;-65
2021/04/02 12:46:23;;;;;;;5.40;1.35;;;;;;;;;;5089707;28;20020;-65
2021/04/02 12:48:49;;;;;;;8.32;1.70;;;;;;;;;;5089968;28;20059;-65
2021/04/02 12:51:15;;;;;;;4.72;1.90;;;;;;;;;;5089809;28;20062;-65
2021/04/02 12:53:41;;;;;;;7.70;1.70;;;;;;;;;;5089037;28;20027;-67
2021/04/02 12:56:06;;;;;;;8.80;2.17;;;;;;;;;;5088891;28;20416;-67
2021/04/02 12:58:31;;;;;;;5.25;1.58;;;;;;;;;;5089513;28;20063;-67
2021/04/02 13:00:56;;;;;;;9.13;1.60;;;;;;;;;;5089860;28;20032;-67
2021/04/02 13:03:22;;;;;;;4.18;1.75;;;;;;;;;;5088642;28;20089;-67
2021/04/02 13:05:47;;;;;;;8.52;1.80;;;;;;;;;;5089790;28;20032;-67
2021/04/02 13:08:13;;;;;;;6.57;1.90;;;;;;;;;;5089004;28;20024;-67
2021/04/02 13:10:39;;;;;;;5.40;1.60;;;;;;;;;;5089323;28;20123;-67
2021/04/02 13:13:04;;;;;;;9.57;2.22;;;;;;;;;;5088586;28;20035;-67
2021/04/02 13:15:29;;;;;;;8.38;2.67;;;;;;;;;;5089638;28;20016;-65
2021/04/02 13:17:55;;;;;;;11.82;2.05;;;;;;;;;;5089300;28;20400;-65
2021/04/02 13:20:22;;;;;;;7.07;2.30;;;;;;;;;;5089439;28;20036;-65
2021/04/02 13:22:48;;;;;;;4.82;2.10;;;;;;;;;;5089457;28;20067;-65
2021/04/02 13:25:14;;;;;;;9.23;2.15;;;;;;;;;;5088751;28;20068;-65
2021/04/02 13:27:39;;;;;;;11.80;2.35;;;;;;;;;;5089352;28;20043;-65
2021/04/02 13:30:09;;;;;;;9.77;1.70;;;;;;;;;;5088940;28;20035;-65
2021/04/02 13:32:42;;;;;;;5.97;1.95;;;;;;;;;;5089192;28;20043;-65
2021/04/02 13:35:08;;;;;;;4.80;1.88;;;;;;;;;;5089045;28;20062;-65
2021/04/02 13:37:34;;;;;;;8.77;2.00;;;;;;;;;;5088737;28;20032;-65
2021/04/02 13:39:59;;;;;;;7.28;1.63;;;;;;;;;;5089147;28;20172;-65
2021/04/02 13:42:24;;;;;;;11.52;2.53;;;;;;;;;;5088501;28;20101;-65
2021/04/02 13:44:49;;;;;;;9.02;2.42;;;;;;;;;;5088840;28;20024;-65
2021/04/02 13:47:15;;;;;;;5.45;2.38;;;;;;;;;;5089174;28;20024;-65
2021/04/02 13:49:40;;;;;;;8.77;2.63;;;;;;;;;;5088855;28;20490;-65
2021/04/02 13:52:05;;;;;;;4.85;1.85;;;;;;;;;;5088572;28;20039;-67
2021/04/02 13:54:31;;;;;;;9.95;3.13;;;;;;;;;;5088821;28;20051;-67
2021/04/02 13:56:56;;;;;;;7.10;1.80;;;;;;;;;;5089200;28;20047;-67
2021/04/02 13:59:21;;;;;;;5.97;2.50;;;;;;;;;;5088910;28;20083;-67
2021/04/02 14:01:47;;;;;;;7.07;2.22;;;;;;;;;;5088686;28;20074;-67
2021/04/02 14:04:12;;;;;;;7.50;2.70;;;;;;;;;;5088540;28;20044;-67
2021/04/02 14:06:37;;;;;;;7.82;3.60;;;;;;;;;;5090520;28;20165;-67
2021/04/02 14:09:03;;;;;;;8.57;2.10;;;;;;;;;;5092984;28;20027;-67
2021/04/02 14:11:28;;;;;;;7.60;2.00;;;;;;;;;;5093219;28;20384;-67
2021/04/02 14:13:54;;;;;;;6.15;2.20;;;;;;;;;;5074252;28;20036;-67
2021/04/02 14:16:19;;;;;;;5.68;2.85;;;;;;;;;;5092085;28;20500;-67
2021/04/02 14:18:44;;;;;;;7.57;2.30;;;;;;;;;;5092152;28;20084;-67
2021/04/02 14:21:09;;;;;;;9.07;2.30;;;;;;;;;;5092464;28;20054;-67
2021/04/02 14:23:35;;;;;;;10.68;2.05;;;;;;;;;;5092756;28;20232;-67
2021/04/02 14:26:00;;;;;;;5.70;2.30;;;;;;;;;;5092378;28;20558;-67
2021/04/02 14:28:25;;;;;;;7.22;2.10;;;;;;;;;;5092226;28;20035;-67
2021/04/02 14:30:51;;;;;;;6.20;2.42;;;;;;;;;;5092329;28;20030;-67
2021/04/02 14:33:16;;;;;;;9.13;2.38;;;;;;;;;;5092352;28;20079;-67
2021/04/02 14:35:42;;;;;;;7.30;2.03;;;;;;;;;;5091732;28;20024;-64